sensor_id;sensor_type;location;lat;lon;timestamp;P1;durP1;ratioP1;P2;durP2;ratioP2
18576;SDS011;9418;52.694;13.294;2023-11-22T00:01:06;8.23;;;4.03;;
18576;SDS011;9418;52.694;13.294;2023-11-22T00:03:34;8.10;;;4.60;;
18576;SDS011;9418;52.694;13.294;2023-11-22T00:06:01;5.30;;;4.80;;
18576;SDS011;9418;52.694;13.294;2023-11-22T00:08:27;4.97;;;4.47;;
18576;SDS011;9418;52.694;13.294;2023-11-22T00:10:54;4.10;;;3.70;;
18576;SDS011;9418;52.694;13.294;2023-11-22T00:13:21;5.07;;;4.60;;
18576;SDS011;9418;52.694;13.294;2023-11-22T00:15:48;5.30;;;4.57;;
18576;SDS011;9418;52.694;13.294;2023-11-22T00:18:15;4.30;;;3.90;;
18576;SDS011;9418;52.694;13.294;2023-11-22T00:20:43;4.70;;;4.27;;
18576;SDS011;9418;52.694;13.294;2023-11-22T00:23:12;4.80;;;4.33;;
18576;SDS011;9418;52.694;13.294;2023-11-22T00:25:39;6.00;;;4.50;;
18576;SDS011;9418;52.694;13.294;2023-11-22T00:28:05;6.27;;;4.90;;
18576;SDS011;9418;52.694;13.294;2023-11-22T00:30:31;5.03;;;4.50;;
18576;SDS011;9418;52.694;13.294;2023-11-22T00:32:58;4.43;;;4.03;;
18576;SDS011;9418;52.694;13.294;2023-11-22T00:35:25;6.20;;;4.30;;
18576;SDS011;9418;52.694;13.294;2023-11-22T00:37:53;5.30;;;4.80;;
18576;SDS011;9418;52.694;13.294;2023-11-22T00:40:19;4.50;;;3.90;;
18576;SDS011;9418;52.694;13.294;2023-11-22T00:42:46;10.10;;;5.53;;
18576;SDS011;9418;52.694;13.294;2023-11-22T00:45:12;4.77;;;3.97;;
18576;SDS011;9418;52.694;13.294;2023-11-22T00:47:39;6.07;;;4.43;;
18576;SDS011;9418;52.694;13.294;2023-11-22T00:50:06;5.40;;;4.60;;
18576;SDS011;9418;52.694;13.294;2023-11-22T00:52:33;5.03;;;3.90;;
18576;SDS011;9418;52.694;13.294;2023-11-22T00:55:01;8.33;;;4.70;;
18576;SDS011;9418;52.694;13.294;2023-11-22T00:57:27;7.30;;;4.80;;
18576;SDS011;9418;52.694;13.294;2023-11-22T00:59:55;5.33;;;4.77;;
18576;SDS011;9418;52.694;13.294;2023-11-22T01:02:21;5.33;;;4.83;;
18576;SDS011;9418;52.694;13.294;2023-11-22T01:04:48;6.77;;;4.83;;
18576;SDS011;9418;52.694;13.294;2023-11-22T01:07:15;4.60;;;4.20;;
18576;SDS011;9418;52.694;13.294;2023-11-22T01:09:41;6.07;;;3.93;;
18576;SDS011;9418;52.694;13.294;2023-11-22T01:12:09;5.47;;;4.60;;
18576;SDS011;9418;52.694;13.294;2023-11-22T01:14:37;6.03;;;4.87;;
18576;SDS011;9418;52.694;13.294;2023-11-22T01:17:04;5.10;;;4.60;;
18576;SDS011;9418;52.694;13.294;2023-11-22T01:19:30;6.63;;;5.53;;
18576;SDS011;9418;52.694;13.294;2023-11-22T01:21:57;4.53;;;4.13;;
18576;SDS011;9418;52.694;13.294;2023-11-22T01:24:23;5.20;;;4.70;;
18576;SDS011;9418;52.694;13.294;2023-11-22T01:26:51;5.40;;;4.60;;
18576;SDS011;9418;52.694;13.294;2023-11-22T01:29:19;5.07;;;4.67;;
18576;SDS011;9418;52.694;13.294;2023-11-22T01:31:45;5.40;;;4.90;;
18576;SDS011;9418;52.694;13.294;2023-11-22T01:34:12;5.83;;;5.27;;
18576;SDS011;9418;52.694;13.294;2023-11-22T01:36:41;5.40;;;4.90;;
18576;SDS011;9418;52.694;13.294;2023-11-22T01:39:08;4.77;;;4.30;;
18576;SDS011;9418;52.694;13.294;2023-11-22T01:41:37;8.03;;;5.70;;
18576;SDS011;9418;52.694;13.294;2023-11-22T01:44:04;6.50;;;5.30;;
18576;SDS011;9418;52.694;13.294;2023-11-22T01:46:32;5.40;;;4.77;;
18576;SDS011;9418;52.694;13.294;2023-11-22T01:48:58;5.27;;;4.77;;
18576;SDS011;9418;52.694;13.294;2023-11-22T01:51:26;5.83;;;5.30;;
18576;SDS011;9418;52.694;13.294;2023-11-22T01:53:54;5.50;;;4.40;;
18576;SDS011;9418;52.694;13.294;2023-11-22T01:56:23;5.20;;;4.70;;
18576;SDS011;9418;52.694;13.294;2023-11-22T01:58:52;8.67;;;5.03;;
18576;SDS011;9418;52.694;13.294;2023-11-22T02:01:20;6.03;;;4.60;;
18576;SDS011;9418;52.694;13.294;2023-11-22T02:03:48;6.50;;;5.20;;
18576;SDS011;9418;52.694;13.294;2023-11-22T02:06:17;5.63;;;4.70;;
18576;SDS011;9418;52.694;13.294;2023-11-22T02:08:44;7.07;;;5.33;;
18576;SDS011;9418;52.694;13.294;2023-11-22T02:11:10;6.27;;;5.47;;
18576;SDS011;9418;52.694;13.294;2023-11-22T02:13:37;6.30;;;5.70;;
18576;SDS011;9418;52.694;13.294;2023-11-22T02:16:04;7.17;;;5.10;;
18576;SDS011;9418;52.694;13.294;2023-11-22T02:18:30;5.17;;;4.70;;
18576;SDS011;9418;52.694;13.294;2023-11-22T02:20:58;7.60;;;5.10;;
18576;SDS011;9418;52.694;13.294;2023-11-22T02:23:27;9.13;;;6.40;;
18576;SDS011;9418;52.694;13.294;2023-11-22T02:25:54;5.80;;;5.30;;
18576;SDS011;9418;52.694;13.294;2023-11-22T02:28:21;6.57;;;5.83;;
18576;SDS011;9418;52.694;13.294;2023-11-22T02:30:48;5.43;;;4.97;;
18576;SDS011;9418;52.694;13.294;2023-11-22T02:33:15;5.03;;;4.63;;
18576;SDS011;9418;52.694;13.294;2023-11-22T02:35:41;5.87;;;5.23;;
18576;SDS011;9418;52.694;13.294;2023-11-22T02:38:08;6.03;;;5.20;;
18576;SDS011;9418;52.694;13.294;2023-11-22T02:40:36;11.07;;;5.57;;
18576;SDS011;9418;52.694;13.294;2023-11-22T02:43:03;10.03;;;6.00;;
18576;SDS011;9418;52.694;13.294;2023-11-22T02:45:34;8.00;;;5.43;;
18576;SDS011;9418;52.694;13.294;2023-11-22T02:48:01;6.00;;;5.40;;
18576;SDS011;9418;52.694;13.294;2023-11-22T02:50:28;5.30;;;4.80;;
18576;SDS011;9418;52.694;13.294;2023-11-22T02:52:56;7.03;;;5.77;;
18576;SDS011;9418;52.694;13.294;2023-11-22T02:55:23;8.40;;;6.10;;
18576;SDS011;9418;52.694;13.294;2023-11-22T02:57:51;7.17;;;5.90;;
18576;SDS011;9418;52.694;13.294;2023-11-22T03:00:18;6.00;;;5.40;;
18576;SDS011;9418;52.694;13.294;2023-11-22T03:02:45;5.97;;;5.37;;
18576;SDS011;9418;52.694;13.294;2023-11-22T03:05:11;6.47;;;5.87;;
18576;SDS011;9418;52.694;13.294;2023-11-22T03:07:39;7.03;;;5.80;;
18576;SDS011;9418;52.694;13.294;2023-11-22T03:10:06;7.57;;;6.13;;
18576;SDS011;9418;52.694;13.294;2023-11-22T03:12:33;7.83;;;5.70;;
18576;SDS011;9418;52.694;13.294;2023-11-22T03:15:01;6.43;;;5.77;;
18576;SDS011;9418;52.694;13.294;2023-11-22T03:17:28;7.90;;;6.10;;
18576;SDS011;9418;52.694;13.294;2023-11-22T03:19:55;10.43;;;5.90;;
18576;SDS011;9418;52.694;13.294;2023-11-22T03:22:22;7.33;;;6.53;;
18576;SDS011;9418;52.694;13.294;2023-11-22T03:24:49;9.30;;;6.40;;
18576;SDS011;9418;52.694;13.294;2023-11-22T03:27:16;7.67;;;6.27;;
18576;SDS011;9418;52.694;13.294;2023-11-22T03:29:43;10.00;;;7.60;;
18576;SDS011;9418;52.694;13.294;2023-11-22T03:32:12;12.80;;;8.17;;
18576;SDS011;9418;52.694;13.294;2023-11-22T03:34:39;7.93;;;7.13;;
18576;SDS011;9418;52.694;13.294;2023-11-22T03:37:05;8.90;;;7.13;;
18576;SDS011;9418;52.694;13.294;2023-11-22T03:39:32;9.90;;;6.27;;
18576;SDS011;9418;52.694;13.294;2023-11-22T03:41:58;7.37;;;6.57;;
18576;SDS011;9418;52.694;13.294;2023-11-22T03:44:25;12.50;;;6.03;;
18576;SDS011;9418;52.694;13.294;2023-11-22T03:46:53;7.60;;;6.47;;
18576;SDS011;9418;52.694;13.294;2023-11-22T03:49:21;10.30;;;7.03;;
18576;SDS011;9418;52.694;13.294;2023-11-22T03:51:48;8.87;;;6.97;;
18576;SDS011;9418;52.694;13.294;2023-11-22T03:54:14;9.90;;;7.80;;
18576;SDS011;9418;52.694;13.294;2023-11-22T03:56:41;11.03;;;7.50;;
18576;SDS011;9418;52.694;13.294;2023-11-22T03:59:09;9.20;;;7.50;;
18576;SDS011;9418;52.694;13.294;2023-11-22T04:01:35;10.50;;;6.83;;
18576;SDS011;9418;52.694;13.294;2023-11-22T04:04:02;7.80;;;5.90;;
18576;SDS011;9418;52.694;13.294;2023-11-22T04:06:30;10.77;;;5.40;;
18576;SDS011;9418;52.694;13.294;2023-11-22T04:08:58;6.70;;;6.00;;
18576;SDS011;9418;52.694;13.294;2023-11-22T04:11:26;12.13;;;7.27;;
18576;SDS011;9418;52.694;13.294;2023-11-22T04:13:54;12.30;;;8.07;;
18576;SDS011;9418;52.694;13.294;2023-11-22T04:16:20;8.57;;;6.03;;
18576;SDS011;9418;52.694;13.294;2023-11-22T04:18:47;7.80;;;7.00;;
18576;SDS011;9418;52.694;13.294;2023-11-22T04:21:13;8.50;;;6.77;;
18576;SDS011;9418;52.694;13.294;2023-11-22T04:23:41;7.07;;;6.37;;
18576;SDS011;9418;52.694;13.294;2023-11-22T04:26:08;8.50;;;6.37;;
18576;SDS011;9418;52.694;13.294;2023-11-22T04:28:35;7.73;;;6.47;;
18576;SDS011;9418;52.694;13.294;2023-11-22T04:31:02;6.00;;;5.47;;
18576;SDS011;9418;52.694;13.294;2023-11-22T04:33:29;7.47;;;6.47;;
18576;SDS011;9418;52.694;13.294;2023-11-22T04:35:56;6.67;;;5.53;;
18576;SDS011;9418;52.694;13.294;2023-11-22T04:38:22;8.93;;;6.80;;
18576;SDS011;9418;52.694;13.294;2023-11-22T04:40:51;6.57;;;5.83;;
18576;SDS011;9418;52.694;13.294;2023-11-22T04:43:18;7.53;;;6.17;;
18576;SDS011;9418;52.694;13.294;2023-11-22T04:45:44;6.07;;;5.50;;
18576;SDS011;9418;52.694;13.294;2023-11-22T04:48:11;5.80;;;5.20;;
18576;SDS011;9418;52.694;13.294;2023-11-22T04:50:39;6.70;;;5.80;;
18576;SDS011;9418;52.694;13.294;2023-11-22T04:53:06;6.70;;;5.93;;
18576;SDS011;9418;52.694;13.294;2023-11-22T04:55:33;6.73;;;5.40;;
18576;SDS011;9418;52.694;13.294;2023-11-22T04:58:01;6.23;;;5.30;;
18576;SDS011;9418;52.694;13.294;2023-11-22T05:00:28;5.60;;;5.10;;
18576;SDS011;9418;52.694;13.294;2023-11-22T05:02:54;5.13;;;4.63;;
18576;SDS011;9418;52.694;13.294;2023-11-22T05:05:21;7.50;;;6.10;;
18576;SDS011;9418;52.694;13.294;2023-11-22T05:07:47;8.87;;;7.03;;
18576;SDS011;9418;52.694;13.294;2023-11-22T05:10:14;8.57;;;6.53;;
18576;SDS011;9418;52.694;13.294;2023-11-22T05:12:42;6.87;;;5.97;;
18576;SDS011;9418;52.694;13.294;2023-11-22T05:15:10;8.30;;;6.00;;
18576;SDS011;9418;52.694;13.294;2023-11-22T05:17:39;6.47;;;5.00;;
18576;SDS011;9418;52.694;13.294;2023-11-22T05:20:06;7.60;;;6.20;;
18576;SDS011;9418;52.694;13.294;2023-11-22T05:22:34;6.47;;;5.77;;
18576;SDS011;9418;52.694;13.294;2023-11-22T05:25:00;5.17;;;4.67;;
18576;SDS011;9418;52.694;13.294;2023-11-22T05:27:27;6.10;;;5.33;;
18576;SDS011;9418;52.694;13.294;2023-11-22T05:29:54;8.90;;;6.03;;
18576;SDS011;9418;52.694;13.294;2023-11-22T05:32:22;9.37;;;8.40;;
18576;SDS011;9418;52.694;13.294;2023-11-22T05:34:48;9.13;;;8.20;;
18576;SDS011;9418;52.694;13.294;2023-11-22T05:37:15;7.53;;;6.67;;
18576;SDS011;9418;52.694;13.294;2023-11-22T05:39:41;11.70;;;7.03;;
18576;SDS011;9418;52.694;13.294;2023-11-22T05:42:08;6.23;;;5.40;;
18576;SDS011;9418;52.694;13.294;2023-11-22T05:44:34;7.53;;;6.47;;
18576;SDS011;9418;52.694;13.294;2023-11-22T05:47:01;9.40;;;6.10;;
18576;SDS011;9418;52.694;13.294;2023-11-22T05:49:29;6.20;;;5.60;;
18576;SDS011;9418;52.694;13.294;2023-11-22T05:51:56;8.30;;;5.67;;
18576;SDS011;9418;52.694;13.294;2023-11-22T05:54:22;9.40;;;5.63;;
18576;SDS011;9418;52.694;13.294;2023-11-22T05:56:49;7.20;;;5.60;;
18576;SDS011;9418;52.694;13.294;2023-11-22T05:59:15;6.10;;;5.43;;
18576;SDS011;9418;52.694;13.294;2023-11-22T06:01:42;7.07;;;5.90;;
18576;SDS011;9418;52.694;13.294;2023-11-22T06:04:08;8.53;;;5.23;;
18576;SDS011;9418;52.694;13.294;2023-11-22T06:06:36;8.03;;;5.27;;
18576;SDS011;9418;52.694;13.294;2023-11-22T06:09:04;7.90;;;6.43;;
18576;SDS011;9418;52.694;13.294;2023-11-22T06:11:32;6.23;;;5.60;;
18576;SDS011;9418;52.694;13.294;2023-11-22T06:13:59;8.43;;;6.20;;
18576;SDS011;9418;52.694;13.294;2023-11-22T06:16:25;7.40;;;5.90;;
18576;SDS011;9418;52.694;13.294;2023-11-22T06:18:52;5.70;;;5.10;;
18576;SDS011;9418;52.694;13.294;2023-11-22T06:21:18;6.73;;;5.93;;
18576;SDS011;9418;52.694;13.294;2023-11-22T06:23:46;6.27;;;5.67;;
18576;SDS011;9418;52.694;13.294;2023-11-22T06:26:15;7.93;;;6.20;;
18576;SDS011;9418;52.694;13.294;2023-11-22T06:28:41;7.73;;;6.87;;
18576;SDS011;9418;52.694;13.294;2023-11-22T06:31:09;11.00;;;6.80;;
18576;SDS011;9418;52.694;13.294;2023-11-22T06:33:36;7.83;;;6.93;;
18576;SDS011;9418;52.694;13.294;2023-11-22T06:36:02;7.10;;;6.20;;
18576;SDS011;9418;52.694;13.294;2023-11-22T06:38:29;10.90;;;5.83;;
18576;SDS011;9418;52.694;13.294;2023-11-22T06:40:57;9.03;;;5.87;;
18576;SDS011;9418;52.694;13.294;2023-11-22T06:43:23;8.00;;;5.70;;
18576;SDS011;9418;52.694;13.294;2023-11-22T06:45:51;10.73;;;6.73;;
18576;SDS011;9418;52.694;13.294;2023-11-22T06:48:17;6.03;;;5.43;;
18576;SDS011;9418;52.694;13.294;2023-11-22T06:50:44;7.60;;;5.23;;
18576;SDS011;9418;52.694;13.294;2023-11-22T06:53:11;6.80;;;6.20;;
18576;SDS011;9418;52.694;13.294;2023-11-22T06:55:37;8.20;;;6.53;;
18576;SDS011;9418;52.694;13.294;2023-11-22T06:58:05;12.20;;;6.03;;
18576;SDS011;9418;52.694;13.294;2023-11-22T07:00:33;8.77;;;6.53;;
18576;SDS011;9418;52.694;13.294;2023-11-22T07:02:59;11.30;;;6.93;;
18576;SDS011;9418;52.694;13.294;2023-11-22T07:05:26;13.93;;;6.20;;
18576;SDS011;9418;52.694;13.294;2023-11-22T07:07:55;7.97;;;6.53;;
18576;SDS011;9418;52.694;13.294;2023-11-22T07:10:21;6.27;;;5.67;;
18576;SDS011;9418;52.694;13.294;2023-11-22T07:12:48;7.37;;;6.67;;
18576;SDS011;9418;52.694;13.294;2023-11-22T07:15:17;8.33;;;6.50;;
18576;SDS011;9418;52.694;13.294;2023-11-22T07:17:44;8.27;;;6.30;;
18576;SDS011;9418;52.694;13.294;2023-11-22T07:20:11;9.27;;;6.47;;
18576;SDS011;9418;52.694;13.294;2023-11-22T07:22:41;8.37;;;7.57;;
18576;SDS011;9418;52.694;13.294;2023-11-22T07:25:08;7.30;;;6.47;;
18576;SDS011;9418;52.694;13.294;2023-11-22T07:27:42;7.97;;;7.17;;
18576;SDS011;9418;52.694;13.294;2023-11-22T07:30:10;12.50;;;7.70;;
18576;SDS011;9418;52.694;13.294;2023-11-22T07:32:39;8.07;;;7.27;;
18576;SDS011;9418;52.694;13.294;2023-11-22T07:35:06;9.13;;;7.50;;
18576;SDS011;9418;52.694;13.294;2023-11-22T07:37:34;8.57;;;7.77;;
18576;SDS011;9418;52.694;13.294;2023-11-22T07:40:01;12.50;;;9.40;;
18576;SDS011;9418;52.694;13.294;2023-11-22T07:42:28;10.47;;;8.20;;
18576;SDS011;9418;52.694;13.294;2023-11-22T07:44:55;11.13;;;9.20;;
18576;SDS011;9418;52.694;13.294;2023-11-22T07:47:21;15.27;;;10.87;;
18576;SDS011;9418;52.694;13.294;2023-11-22T07:49:50;15.03;;;11.77;;
18576;SDS011;9418;52.694;13.294;2023-11-22T07:52:17;15.90;;;11.87;;
18576;SDS011;9418;52.694;13.294;2023-11-22T07:54:43;15.70;;;12.00;;
18576;SDS011;9418;52.694;13.294;2023-11-22T07:57:10;10.73;;;7.50;;
18576;SDS011;9418;52.694;13.294;2023-11-22T07:59:37;10.80;;;8.70;;
18576;SDS011;9418;52.694;13.294;2023-11-22T08:02:04;15.50;;;9.33;;
18576;SDS011;9418;52.694;13.294;2023-11-22T08:04:32;12.90;;;8.80;;
18576;SDS011;9418;52.694;13.294;2023-11-22T08:07:00;13.00;;;7.70;;
18576;SDS011;9418;52.694;13.294;2023-11-22T08:09:27;12.33;;;7.87;;
18576;SDS011;9418;52.694;13.294;2023-11-22T08:11:57;7.07;;;6.37;;
18576;SDS011;9418;52.694;13.294;2023-11-22T08:14:24;8.07;;;6.43;;
18576;SDS011;9418;52.694;13.294;2023-11-22T08:16:52;9.30;;;6.70;;
18576;SDS011;9418;52.694;13.294;2023-11-22T08:19:19;6.40;;;5.70;;
18576;SDS011;9418;52.694;13.294;2023-11-22T08:21:47;7.33;;;6.60;;
18576;SDS011;9418;52.694;13.294;2023-11-22T08:24:15;9.93;;;5.97;;
18576;SDS011;9418;52.694;13.294;2023-11-22T08:26:41;6.80;;;6.13;;
18576;SDS011;9418;52.694;13.294;2023-11-22T08:29:08;6.57;;;5.87;;
18576;SDS011;9418;52.694;13.294;2023-11-22T08:31:36;7.67;;;6.57;;
18576;SDS011;9418;52.694;13.294;2023-11-22T08:34:02;7.43;;;6.73;;
18576;SDS011;9418;52.694;13.294;2023-11-22T08:36:31;7.17;;;6.40;;
18576;SDS011;9418;52.694;13.294;2023-11-22T08:38:59;7.40;;;6.17;;
18576;SDS011;9418;52.694;13.294;2023-11-22T08:41:27;7.27;;;6.50;;
18576;SDS011;9418;52.694;13.294;2023-11-22T08:43:54;10.67;;;6.73;;
18576;SDS011;9418;52.694;13.294;2023-11-22T08:46:21;8.50;;;6.30;;
18576;SDS011;9418;52.694;13.294;2023-11-22T08:48:48;11.10;;;7.70;;
18576;SDS011;9418;52.694;13.294;2023-11-22T08:51:15;7.97;;;7.03;;
18576;SDS011;9418;52.694;13.294;2023-11-22T08:53:42;7.70;;;6.70;;
18576;SDS011;9418;52.694;13.294;2023-11-22T08:56:09;7.20;;;6.50;;
18576;SDS011;9418;52.694;13.294;2023-11-22T08:58:37;14.47;;;7.70;;
18576;SDS011;9418;52.694;13.294;2023-11-22T09:01:04;11.73;;;6.90;;
18576;SDS011;9418;52.694;13.294;2023-11-22T09:03:31;8.60;;;7.00;;
18576;SDS011;9418;52.694;13.294;2023-11-22T09:05:58;8.00;;;7.20;;
18576;SDS011;9418;52.694;13.294;2023-11-22T09:08:25;8.83;;;7.37;;
18576;SDS011;9418;52.694;13.294;2023-11-22T09:10:52;8.60;;;7.70;;
18576;SDS011;9418;52.694;13.294;2023-11-22T09:13:19;11.23;;;7.30;;
18576;SDS011;9418;52.694;13.294;2023-11-22T09:15:48;8.60;;;7.40;;
18576;SDS011;9418;52.694;13.294;2023-11-22T09:18:15;8.47;;;7.67;;
18576;SDS011;9418;52.694;13.294;2023-11-22T09:20:42;7.40;;;6.13;;
18576;SDS011;9418;52.694;13.294;2023-11-22T09:23:10;8.10;;;7.20;;
18576;SDS011;9418;52.694;13.294;2023-11-22T09:25:37;9.07;;;7.77;;
18576;SDS011;9418;52.694;13.294;2023-11-22T09:28:04;9.93;;;7.30;;
18576;SDS011;9418;52.694;13.294;2023-11-22T09:30:32;7.17;;;6.40;;
18576;SDS011;9418;52.694;13.294;2023-11-22T09:33:01;8.07;;;7.23;;
18576;SDS011;9418;52.694;13.294;2023-11-22T09:35:29;13.63;;;7.40;;
18576;SDS011;9418;52.694;13.294;2023-11-22T09:37:57;11.50;;;9.33;;
18576;SDS011;9418;52.694;13.294;2023-11-22T09:40:24;12.00;;;8.03;;
18576;SDS011;9418;52.694;13.294;2023-11-22T09:42:52;9.37;;;7.90;;
18576;SDS011;9418;52.694;13.294;2023-11-22T09:45:20;9.83;;;8.27;;
18576;SDS011;9418;52.694;13.294;2023-11-22T09:47:47;9.63;;;7.33;;
18576;SDS011;9418;52.694;13.294;2023-11-22T09:50:17;8.77;;;7.60;;
18576;SDS011;9418;52.694;13.294;2023-11-22T09:52:46;7.37;;;6.67;;
18576;SDS011;9418;52.694;13.294;2023-11-22T09:55:18;7.57;;;6.87;;
18576;SDS011;9418;52.694;13.294;2023-11-22T09:57:47;8.50;;;7.00;;
18576;SDS011;9418;52.694;13.294;2023-11-22T10:00:14;8.67;;;7.77;;
18576;SDS011;9418;52.694;13.294;2023-11-22T10:02:43;9.93;;;6.90;;
18576;SDS011;9418;52.694;13.294;2023-11-22T10:05:10;10.03;;;7.83;;
18576;SDS011;9418;52.694;13.294;2023-11-22T10:07:39;10.07;;;7.20;;
18576;SDS011;9418;52.694;13.294;2023-11-22T10:10:06;10.10;;;7.93;;
18576;SDS011;9418;52.694;13.294;2023-11-22T10:12:36;7.73;;;6.93;;
18576;SDS011;9418;52.694;13.294;2023-11-22T10:15:11;14.60;;;6.03;;
18576;SDS011;9418;52.694;13.294;2023-11-22T10:17:40;9.17;;;6.83;;
18576;SDS011;9418;52.694;13.294;2023-11-22T10:20:13;10.10;;;6.50;;
18576;SDS011;9418;52.694;13.294;2023-11-22T10:22:46;7.73;;;6.60;;
18576;SDS011;9418;52.694;13.294;2023-11-22T10:25:13;8.03;;;6.37;;
18576;SDS011;9418;52.694;13.294;2023-11-22T10:27:43;12.67;;;6.60;;
18576;SDS011;9418;52.694;13.294;2023-11-22T10:30:11;12.00;;;6.90;;
18576;SDS011;9418;52.694;13.294;2023-11-22T10:32:39;8.07;;;5.77;;
18576;SDS011;9418;52.694;13.294;2023-11-22T10:35:07;10.63;;;6.40;;
18576;SDS011;9418;52.694;13.294;2023-11-22T10:37:34;8.20;;;6.13;;
18576;SDS011;9418;52.694;13.294;2023-11-22T10:40:03;6.73;;;6.07;;
18576;SDS011;9418;52.694;13.294;2023-11-22T10:42:31;6.73;;;6.10;;
18576;SDS011;9418;52.694;13.294;2023-11-22T10:45:00;9.00;;;6.27;;
18576;SDS011;9418;52.694;13.294;2023-11-22T10:47:29;6.17;;;5.57;;
18576;SDS011;9418;52.694;13.294;2023-11-22T10:49:56;7.07;;;6.33;;
18576;SDS011;9418;52.694;13.294;2023-11-22T10:52:26;7.03;;;5.97;;
18576;SDS011;9418;52.694;13.294;2023-11-22T10:54:55;6.97;;;6.27;;
18576;SDS011;9418;52.694;13.294;2023-11-22T10:57:29;6.53;;;5.73;;
18576;SDS011;9418;52.694;13.294;2023-11-22T10:59:59;10.00;;;6.67;;
18576;SDS011;9418;52.694;13.294;2023-11-22T11:02:33;8.80;;;6.20;;
18576;SDS011;9418;52.694;13.294;2023-11-22T11:05:07;8.83;;;6.63;;
18576;SDS011;9418;52.694;13.294;2023-11-22T11:07:43;7.53;;;5.90;;
18576;SDS011;9418;52.694;13.294;2023-11-22T11:10:14;6.33;;;5.50;;
18576;SDS011;9418;52.694;13.294;2023-11-22T11:12:42;8.23;;;5.70;;
18576;SDS011;9418;52.694;13.294;2023-11-22T11:15:11;6.00;;;5.50;;
18576;SDS011;9418;52.694;13.294;2023-11-22T11:17:37;8.70;;;6.20;;
18576;SDS011;9418;52.694;13.294;2023-11-22T11:20:05;6.87;;;6.20;;
18576;SDS011;9418;52.694;13.294;2023-11-22T11:22:32;9.10;;;6.37;;
18576;SDS011;9418;52.694;13.294;2023-11-22T11:25:00;9.87;;;6.60;;
18576;SDS011;9418;52.694;13.294;2023-11-22T11:27:32;7.47;;;6.73;;
18576;SDS011;9418;52.694;13.294;2023-11-22T11:30:01;9.23;;;6.87;;
18576;SDS011;9418;52.694;13.294;2023-11-22T11:32:49;7.60;;;6.87;;
18576;SDS011;9418;52.694;13.294;2023-11-22T11:35:17;6.67;;;5.80;;
18576;SDS011;9418;52.694;13.294;2023-11-22T11:37:46;7.83;;;6.37;;
18576;SDS011;9418;52.694;13.294;2023-11-22T11:40:25;8.27;;;6.50;;
18576;SDS011;9418;52.694;13.294;2023-11-22T11:42:52;7.70;;;6.90;;
18576;SDS011;9418;52.694;13.294;2023-11-22T11:45:22;7.40;;;6.70;;
18576;SDS011;9418;52.694;13.294;2023-11-22T11:47:49;7.37;;;6.67;;
18576;SDS011;9418;52.694;13.294;2023-11-22T11:50:16;6.90;;;6.20;;
18576;SDS011;9418;52.694;13.294;2023-11-22T11:52:42;7.20;;;6.50;;
18576;SDS011;9418;52.694;13.294;2023-11-22T11:55:09;7.37;;;6.27;;
18576;SDS011;9418;52.694;13.294;2023-11-22T11:57:36;6.30;;;5.70;;
18576;SDS011;9418;52.694;13.294;2023-11-22T12:00:02;6.57;;;5.97;;
18576;SDS011;9418;52.694;13.294;2023-11-22T12:02:31;6.03;;;5.50;;
18576;SDS011;9418;52.694;13.294;2023-11-22T12:04:58;5.83;;;5.30;;
18576;SDS011;9418;52.694;13.294;2023-11-22T12:07:26;7.73;;;6.50;;
18576;SDS011;9418;52.694;13.294;2023-11-22T12:09:52;15.83;;;7.40;;
18576;SDS011;9418;52.694;13.294;2023-11-22T12:12:22;15.13;;;9.00;;
18576;SDS011;9418;52.694;13.294;2023-11-22T12:14:48;14.80;;;7.87;;
18576;SDS011;9418;52.694;13.294;2023-11-22T12:17:15;9.63;;;7.27;;
18576;SDS011;9418;52.694;13.294;2023-11-22T12:19:44;8.97;;;7.30;;
18576;SDS011;9418;52.694;13.294;2023-11-22T12:22:11;9.57;;;7.23;;
18576;SDS011;9418;52.694;13.294;2023-11-22T12:24:37;12.83;;;8.03;;
18576;SDS011;9418;52.694;13.294;2023-11-22T12:27:04;8.13;;;7.33;;
18576;SDS011;9418;52.694;13.294;2023-11-22T12:29:35;8.83;;;6.90;;
18576;SDS011;9418;52.694;13.294;2023-11-22T12:32:02;7.93;;;6.90;;
18576;SDS011;9418;52.694;13.294;2023-11-22T12:34:29;9.13;;;7.73;;
18576;SDS011;9418;52.694;13.294;2023-11-22T12:36:59;8.57;;;6.90;;
18576;SDS011;9418;52.694;13.294;2023-11-22T12:39:27;8.60;;;7.57;;
18576;SDS011;9418;52.694;13.294;2023-11-22T12:41:54;8.17;;;6.77;;
18576;SDS011;9418;52.694;13.294;2023-11-22T12:44:22;8.83;;;6.37;;
18576;SDS011;9418;52.694;13.294;2023-11-22T12:46:49;7.10;;;6.30;;
18576;SDS011;9418;52.694;13.294;2023-11-22T12:49:22;8.43;;;6.90;;
18576;SDS011;9418;52.694;13.294;2023-11-22T12:51:49;8.13;;;6.37;;
18576;SDS011;9418;52.694;13.294;2023-11-22T12:54:17;8.40;;;6.77;;
18576;SDS011;9418;52.694;13.294;2023-11-22T12:56:46;9.00;;;7.50;;
18576;SDS011;9418;52.694;13.294;2023-11-22T12:59:15;6.87;;;6.00;;
18576;SDS011;9418;52.694;13.294;2023-11-22T13:01:43;11.80;;;6.97;;
18576;SDS011;9418;52.694;13.294;2023-11-22T13:04:10;7.77;;;6.97;;
18576;SDS011;9418;52.694;13.294;2023-11-22T13:06:41;11.23;;;7.63;;
18576;SDS011;9418;52.694;13.294;2023-11-22T13:09:07;8.37;;;6.77;;
18576;SDS011;9418;52.694;13.294;2023-11-22T13:11:40;9.53;;;6.73;;
18576;SDS011;9418;52.694;13.294;2023-11-22T13:14:08;7.50;;;6.17;;
18576;SDS011;9418;52.694;13.294;2023-11-22T13:16:35;9.03;;;7.07;;
18576;SDS011;9418;52.694;13.294;2023-11-22T13:19:03;9.17;;;8.23;;
18576;SDS011;9418;52.694;13.294;2023-11-22T13:21:30;8.10;;;7.30;;
18576;SDS011;9418;52.694;13.294;2023-11-22T13:23:57;10.43;;;9.23;;
18576;SDS011;9418;52.694;13.294;2023-11-22T13:26:24;9.93;;;8.93;;
18576;SDS011;9418;52.694;13.294;2023-11-22T13:28:53;9.20;;;7.50;;
18576;SDS011;9418;52.694;13.294;2023-11-22T13:31:20;8.80;;;7.67;;
18576;SDS011;9418;52.694;13.294;2023-11-22T13:33:47;9.60;;;7.83;;
18576;SDS011;9418;52.694;13.294;2023-11-22T13:36:15;9.00;;;7.77;;
18576;SDS011;9418;52.694;13.294;2023-11-22T13:38:42;14.50;;;8.77;;
18576;SDS011;9418;52.694;13.294;2023-11-22T13:41:09;9.50;;;8.60;;
18576;SDS011;9418;52.694;13.294;2023-11-22T13:43:36;9.77;;;8.63;;
18576;SDS011;9418;52.694;13.294;2023-11-22T13:46:04;11.50;;;8.30;;
18576;SDS011;9418;52.694;13.294;2023-11-22T13:48:31;11.33;;;8.60;;
18576;SDS011;9418;52.694;13.294;2023-11-22T13:50:58;12.70;;;8.17;;
18576;SDS011;9418;52.694;13.294;2023-11-22T13:53:24;10.80;;;7.60;;
18576;SDS011;9418;52.694;13.294;2023-11-22T13:55:55;8.03;;;7.23;;
18576;SDS011;9418;52.694;13.294;2023-11-22T13:58:23;8.10;;;7.30;;
18576;SDS011;9418;52.694;13.294;2023-11-22T14:00:50;7.77;;;6.93;;
18576;SDS011;9418;52.694;13.294;2023-11-22T14:03:20;9.00;;;8.10;;
18576;SDS011;9418;52.694;13.294;2023-11-22T14:05:47;11.80;;;8.63;;
18576;SDS011;9418;52.694;13.294;2023-11-22T14:08:13;9.20;;;8.10;;
18576;SDS011;9418;52.694;13.294;2023-11-22T14:10:40;15.50;;;8.90;;
18576;SDS011;9418;52.694;13.294;2023-11-22T14:13:07;15.90;;;8.30;;
18576;SDS011;9418;52.694;13.294;2023-11-22T14:15:34;17.50;;;9.27;;
18576;SDS011;9418;52.694;13.294;2023-11-22T14:18:00;10.53;;;8.77;;
18576;SDS011;9418;52.694;13.294;2023-11-22T14:20:29;19.43;;;10.50;;
18576;SDS011;9418;52.694;13.294;2023-11-22T14:22:57;11.53;;;10.00;;
18576;SDS011;9418;52.694;13.294;2023-11-22T14:25:24;13.03;;;10.43;;
18576;SDS011;9418;52.694;13.294;2023-11-22T14:27:51;14.30;;;9.87;;
18576;SDS011;9418;52.694;13.294;2023-11-22T14:30:20;12.00;;;8.20;;
18576;SDS011;9418;52.694;13.294;2023-11-22T14:32:48;13.80;;;8.80;;
18576;SDS011;9418;52.694;13.294;2023-11-22T14:35:16;13.97;;;8.50;;
18576;SDS011;9418;52.694;13.294;2023-11-22T14:37:44;9.30;;;7.80;;
18576;SDS011;9418;52.694;13.294;2023-11-22T14:40:11;9.17;;;8.20;;
18576;SDS011;9418;52.694;13.294;2023-11-22T14:42:38;10.20;;;7.23;;
18576;SDS011;9418;52.694;13.294;2023-11-22T14:45:06;7.83;;;7.00;;
18576;SDS011;9418;52.694;13.294;2023-11-22T14:47:34;10.13;;;8.57;;